Details for Air France at LFPO




Go Back


Latest METAR
Local Time

LFPO 221200Z 23011KT 200V260 9999 FEW046 BKN083 18/07 Q1022 NOSIG
22/09/2018, 14:05:02

Description
Results
Air France Logo
Number of Pilots based at LFPO
0 Pilots Based here
Number of Air France Flights Departed from LFPO
0 Flights Departed
Number of Air France Flights Arrived at LFPO
0 Flights Arrived
Number of Air France Schedules Departing from LFPO
148 Schedules
Number of Air France Schedules Arriving at LFPO
152 Schedules
Number of Air France Schedules Departing from LFPO availible today
68 Schedules Today
Number of Air France Schedules Arriving at LFPO availible today
73 Schedules Today
Average Landing Rate at LFPO
-216 fpm
Air France Average Landing Rate at LFPO
0 fpm
Total Fuel Purchased at LFPO by Air France
0.00 kgs / 0.00 lbs

Pilots Based at LFPO


Pilot ID
Pilot Name
Pilot Rank
No. of Flights
No. of Flying Hours
There are no pilots assigned to this hub!   Will you be the first?
Content